sensor_id;sensor_type;location;lat;lon;timestamp;temperature;humidity
34698;DHT22;61391;50.922;6.928;2022-12-19T00:03:33;0.00;99.90
34698;DHT22;61391;50.922;6.928;2022-12-19T00:06:03;0.00;99.90
34698;DHT22;61391;50.922;6.928;2022-12-19T00:08:28;0.00;99.90
34698;DHT22;61391;50.922;6.928;2022-12-19T00:10:56;0.10;99.90
34698;DHT22;61391;50.922;6.928;2022-12-19T00:13:22;0.00;99.90
34698;DHT22;61391;50.922;6.928;2022-12-19T00:15:48;0.10;99.90
34698;DHT22;61391;50.922;6.928;2022-12-19T00:18:14;0.00;99.90
34698;DHT22;61391;50.922;6.928;2022-12-19T00:24:03;0.10;99.90
34698;DHT22;61391;50.922;6.928;2022-12-19T00:26:31;0.10;99.90
34698;DHT22;61391;50.922;6.928;2022-12-19T00:28:59;0.10;99.90
34698;DHT22;61391;50.922;6.928;2022-12-19T00:31:28;0.20;99.90
34698;DHT22;61391;50.922;6.928;2022-12-19T00:33:54;0.20;99.90
34698;DHT22;61391;50.922;6.928;2022-12-19T00:36:25;0.20;99.90
34698;DHT22;61391;50.922;6.928;2022-12-19T00:38:53;0.30;99.90
34698;DHT22;61391;50.922;6.928;2022-12-19T00:41:21;0.20;99.90
34698;DHT22;61391;50.922;6.928;2022-12-19T00:43:54;0.30;99.90
34698;DHT22;61391;50.922;6.928;2022-12-19T00:46:20;0.40;99.90
34698;DHT22;61391;50.922;6.928;2022-12-19T00:48:46;0.40;99.90
34698;DHT22;61391;50.922;6.928;2022-12-19T00:51:14;0.40;99.90
34698;DHT22;61391;50.922;6.928;2022-12-19T00:53:44;0.40;99.90
34698;DHT22;61391;50.922;6.928;2022-12-19T00:56:13;0.40;99.90
34698;DHT22;61391;50.922;6.928;2022-12-19T00:58:39;0.50;99.90
34698;DHT22;61391;50.922;6.928;2022-12-19T01:01:06;0.50;99.90
34698;DHT22;61391;50.922;6.928;2022-12-19T01:03:32;0.70;99.90
34698;DHT22;61391;50.922;6.928;2022-12-19T01:05:57;0.80;99.90
34698;DHT22;61391;50.922;6.928;2022-12-19T01:08:23;0.70;99.90
34698;DHT22;61391;50.922;6.928;2022-12-19T01:10:49;0.70;99.90
34698;DHT22;61391;50.922;6.928;2022-12-19T01:13:17;0.70;99.90
34698;DHT22;61391;50.922;6.928;2022-12-19T01:15:43;0.70;99.90
34698;DHT22;61391;50.922;6.928;2022-12-19T01:18:09;0.80;99.90
34698;DHT22;61391;50.922;6.928;2022-12-19T01:23:57;0.70;99.90
34698;DHT22;61391;50.922;6.928;2022-12-19T01:26:23;0.60;99.90
34698;DHT22;61391;50.922;6.928;2022-12-19T01:28:48;0.70;99.90
34698;DHT22;61391;50.922;6.928;2022-12-19T01:31:14;0.60;99.90
34698;DHT22;61391;50.922;6.928;2022-12-19T01:33:39;0.70;99.90
34698;DHT22;61391;50.922;6.928;2022-12-19T01:36:05;0.70;99.90
34698;DHT22;61391;50.922;6.928;2022-12-19T01:38:33;0.70;99.90
34698;DHT22;61391;50.922;6.928;2022-12-19T01:40:59;0.70;99.90
34698;DHT22;61391;50.922;6.928;2022-12-19T01:43:28;0.90;99.90
34698;DHT22;61391;50.922;6.928;2022-12-19T01:46:00;1.00;99.90
34698;DHT22;61391;50.922;6.928;2022-12-19T01:48:33;1.00;99.90
34698;DHT22;61391;50.922;6.928;2022-12-19T01:51:11;0.90;99.90
34698;DHT22;61391;50.922;6.928;2022-12-19T01:53:45;0.90;99.90
34698;DHT22;61391;50.922;6.928;2022-12-19T01:56:12;0.80;99.90
34698;DHT22;61391;50.922;6.928;2022-12-19T01:58:41;0.80;99.90
34698;DHT22;61391;50.922;6.928;2022-12-19T02:01:07;0.90;99.90
34698;DHT22;61391;50.922;6.928;2022-12-19T02:03:35;1.00;99.90
34698;DHT22;61391;50.922;6.928;2022-12-19T02:06:03;1.10;99.90
34698;DHT22;61391;50.922;6.928;2022-12-19T02:11:51;1.20;99.90
34698;DHT22;61391;50.922;6.928;2022-12-19T02:14:17;1.10;99.90
34698;DHT22;61391;50.922;6.928;2022-12-19T02:25:35;1.20;99.90
34698;DHT22;61391;50.922;6.928;2022-12-19T02:31:04;1.20;99.90
34698;DHT22;61391;50.922;6.928;2022-12-19T02:33:44;1.20;99.90
34698;DHT22;61391;50.922;6.928;2022-12-19T02:36:24;1.20;99.90
34698;DHT22;61391;50.922;6.928;2022-12-19T02:39:00;1.30;99.90
34698;DHT22;61391;50.922;6.928;2022-12-19T02:41:34;1.30;99.90
34698;DHT22;61391;50.922;6.928;2022-12-19T02:44:44;1.30;99.90
34698;DHT22;61391;50.922;6.928;2022-12-19T02:47:03;1.30;99.90
34698;DHT22;61391;50.922;6.928;2022-12-19T02:49:31;1.30;99.90
34698;DHT22;61391;50.922;6.928;2022-12-19T02:52:07;1.30;99.90
34698;DHT22;61391;50.922;6.928;2022-12-19T02:54:33;1.30;99.90
34698;DHT22;61391;50.922;6.928;2022-12-19T03:00:22;1.30;99.90
34698;DHT22;61391;50.922;6.928;2022-12-19T03:06:10;1.30;99.90
34698;DHT22;61391;50.922;6.928;2022-12-19T03:08:48;1.30;99.90
34698;DHT22;61391;50.922;6.928;2022-12-19T03:11:18;1.30;99.90
34698;DHT22;61391;50.922;6.928;2022-12-19T03:13:57;1.30;99.90
34698;DHT22;61391;50.922;6.928;2022-12-19T03:16:24;1.30;99.90
34698;DHT22;61391;50.922;6.928;2022-12-19T03:18:50;1.30;99.90
34698;DHT22;61391;50.922;6.928;2022-12-19T03:23:47;1.30;99.90
34698;DHT22;61391;50.922;6.928;2022-12-19T03:26:17;1.20;99.90
34698;DHT22;61391;50.922;6.928;2022-12-19T03:28:53;1.30;99.90
34698;DHT22;61391;50.922;6.928;2022-12-19T03:31:26;1.30;99.90
34698;DHT22;61391;50.922;6.928;2022-12-19T03:34:02;1.30;99.90
34698;DHT22;61391;50.922;6.928;2022-12-19T03:36:32;1.30;99.90
34698;DHT22;61391;50.922;6.928;2022-12-19T03:39:01;1.30;99.90
34698;DHT22;61391;50.922;6.928;2022-12-19T03:44:52;1.30;99.90
34698;DHT22;61391;50.922;6.928;2022-12-19T03:47:27;1.40;99.90
34698;DHT22;61391;50.922;6.928;2022-12-19T03:49:54;1.40;99.90
34698;DHT22;61391;50.922;6.928;2022-12-19T03:52:28;1.40;99.90
34698;DHT22;61391;50.922;6.928;2022-12-19T03:57:47;1.50;99.90
34698;DHT22;61391;50.922;6.928;2022-12-19T04:00:16;1.50;99.90
34698;DHT22;61391;50.922;6.928;2022-12-19T04:02:46;1.60;99.90
34698;DHT22;61391;50.922;6.928;2022-12-19T04:05:17;1.50;99.90
34698;DHT22;61391;50.922;6.928;2022-12-19T04:07:44;1.60;99.90
34698;DHT22;61391;50.922;6.928;2022-12-19T04:10:17;1.60;99.90
34698;DHT22;61391;50.922;6.928;2022-12-19T04:12:49;1.50;99.90
34698;DHT22;61391;50.922;6.928;2022-12-19T04:15:20;1.60;99.90
34698;DHT22;61391;50.922;6.928;2022-12-19T04:17:54;1.60;99.90
34698;DHT22;61391;50.922;6.928;2022-12-19T04:20:24;1.60;99.90
34698;DHT22;61391;50.922;6.928;2022-12-19T04:23:08;1.60;99.90
34698;DHT22;61391;50.922;6.928;2022-12-19T04:25:36;1.60;99.90
34698;DHT22;61391;50.922;6.928;2022-12-19T04:28:15;1.60;99.90
34698;DHT22;61391;50.922;6.928;2022-12-19T04:30:42;1.60;99.90
34698;DHT22;61391;50.922;6.928;2022-12-19T04:33:09;1.70;99.90
34698;DHT22;61391;50.922;6.928;2022-12-19T04:35:34;1.80;99.90
34698;DHT22;61391;50.922;6.928;2022-12-19T04:38:00;1.80;99.90
34698;DHT22;61391;50.922;6.928;2022-12-19T04:43:48;1.70;99.90
34698;DHT22;61391;50.922;6.928;2022-12-19T04:46:13;1.80;99.90
34698;DHT22;61391;50.922;6.928;2022-12-19T04:48:39;1.70;99.90
34698;DHT22;61391;50.922;6.928;2022-12-19T04:51:05;1.70;99.90
34698;DHT22;61391;50.922;6.928;2022-12-19T04:53:31;1.80;99.90
34698;DHT22;61391;50.922;6.928;2022-12-19T04:56:02;1.80;99.90
34698;DHT22;61391;50.922;6.928;2022-12-19T04:58:28;1.80;99.90
34698;DHT22;61391;50.922;6.928;2022-12-19T05:00:54;1.90;99.90
34698;DHT22;61391;50.922;6.928;2022-12-19T05:03:19;1.90;99.90
34698;DHT22;61391;50.922;6.928;2022-12-19T05:05:45;1.80;99.90
34698;DHT22;61391;50.922;6.928;2022-12-19T05:08:10;1.90;99.90
34698;DHT22;61391;50.922;6.928;2022-12-19T05:10:36;1.80;99.90
34698;DHT22;61391;50.922;6.928;2022-12-19T05:13:02;1.90;99.90
34698;DHT22;61391;50.922;6.928;2022-12-19T05:15:27;1.90;99.90
34698;DHT22;61391;50.922;6.928;2022-12-19T05:17:53;1.90;99.90
34698;DHT22;61391;50.922;6.928;2022-12-19T05:20:18;2.00;99.90
34698;DHT22;61391;50.922;6.928;2022-12-19T05:22:44;1.90;99.90
34698;DHT22;61391;50.922;6.928;2022-12-19T05:25:09;1.80;99.90
34698;DHT22;61391;50.922;6.928;2022-12-19T05:31:05;1.80;99.90
34698;DHT22;61391;50.922;6.928;2022-12-19T05:33:31;1.80;99.90
34698;DHT22;61391;50.922;6.928;2022-12-19T05:36:16;1.80;99.90
34698;DHT22;61391;50.922;6.928;2022-12-19T05:38:42;1.90;99.90
34698;DHT22;61391;50.922;6.928;2022-12-19T05:41:10;1.90;99.90
34698;DHT22;61391;50.922;6.928;2022-12-19T05:43:36;1.90;99.90
34698;DHT22;61391;50.922;6.928;2022-12-19T05:53:05;2.10;99.90
34698;DHT22;61391;50.922;6.928;2022-12-19T05:55:30;2.10;99.90
34698;DHT22;61391;50.922;6.928;2022-12-19T05:57:56;2.20;99.90
34698;DHT22;61391;50.922;6.928;2022-12-19T06:00:22;2.20;99.90
34698;DHT22;61391;50.922;6.928;2022-12-19T06:02:47;2.30;99.90
34698;DHT22;61391;50.922;6.928;2022-12-19T06:05:13;2.40;99.90
34698;DHT22;61391;50.922;6.928;2022-12-19T06:07:38;2.30;99.90
34698;DHT22;61391;50.922;6.928;2022-12-19T06:10:05;2.30;99.90
34698;DHT22;61391;50.922;6.928;2022-12-19T06:12:30;2.20;99.90
34698;DHT22;61391;50.922;6.928;2022-12-19T06:14:56;2.40;99.90
34698;DHT22;61391;50.922;6.928;2022-12-19T06:17:22;2.40;99.90
34698;DHT22;61391;50.922;6.928;2022-12-19T06:19:47;2.50;99.90
34698;DHT22;61391;50.922;6.928;2022-12-19T06:22:13;2.50;99.90
34698;DHT22;61391;50.922;6.928;2022-12-19T06:24:38;2.50;99.90
34698;DHT22;61391;50.922;6.928;2022-12-19T06:27:04;2.50;99.90
34698;DHT22;61391;50.922;6.928;2022-12-19T06:32:45;2.60;99.90
34698;DHT22;61391;50.922;6.928;2022-12-19T06:35:11;2.70;99.90
34698;DHT22;61391;50.922;6.928;2022-12-19T06:37:36;2.70;99.90
34698;DHT22;61391;50.922;6.928;2022-12-19T06:40:02;2.80;99.90
34698;DHT22;61391;50.922;6.928;2022-12-19T06:42:27;2.70;99.90
34698;DHT22;61391;50.922;6.928;2022-12-19T06:44:54;2.70;99.90
34698;DHT22;61391;50.922;6.928;2022-12-19T06:47:21;2.80;99.90
34698;DHT22;61391;50.922;6.928;2022-12-19T06:49:47;3.10;99.90
34698;DHT22;61391;50.922;6.928;2022-12-19T06:52:14;2.80;99.90
34698;DHT22;61391;50.922;6.928;2022-12-19T06:54:39;2.80;99.90
34698;DHT22;61391;50.922;6.928;2022-12-19T06:57:06;2.70;99.90
34698;DHT22;61391;50.922;6.928;2022-12-19T06:59:32;2.80;99.90
34698;DHT22;61391;50.922;6.928;2022-12-19T07:02:18;2.80;99.90
34698;DHT22;61391;50.922;6.928;2022-12-19T07:04:51;2.70;99.90
34698;DHT22;61391;50.922;6.928;2022-12-19T07:07:19;2.80;99.90
34698;DHT22;61391;50.922;6.928;2022-12-19T07:09:45;2.90;99.90
34698;DHT22;61391;50.922;6.928;2022-12-19T07:12:10;2.80;99.90
34698;DHT22;61391;50.922;6.928;2022-12-19T07:14:36;2.80;99.90
34698;DHT22;61391;50.922;6.928;2022-12-19T07:20:23;2.80;99.90
34698;DHT22;61391;50.922;6.928;2022-12-19T07:22:48;2.70;99.90
34698;DHT22;61391;50.922;6.928;2022-12-19T07:25:14;2.80;99.90
34698;DHT22;61391;50.922;6.928;2022-12-19T07:27:42;2.80;99.90
34698;DHT22;61391;50.922;6.928;2022-12-19T07:30:08;2.80;99.90
34698;DHT22;61391;50.922;6.928;2022-12-19T07:32:34;2.90;99.90
34698;DHT22;61391;50.922;6.928;2022-12-19T07:34:59;2.90;99.90
34698;DHT22;61391;50.922;6.928;2022-12-19T07:40:47;3.00;99.90
34698;DHT22;61391;50.922;6.928;2022-12-19T07:43:12;3.00;99.90
34698;DHT22;61391;50.922;6.928;2022-12-19T07:45:38;3.00;99.90
34698;DHT22;61391;50.922;6.928;2022-12-19T07:48:05;3.00;99.90
34698;DHT22;61391;50.922;6.928;2022-12-19T07:50:31;3.20;99.90
34698;DHT22;61391;50.922;6.928;2022-12-19T07:52:57;3.20;99.90
34698;DHT22;61391;50.922;6.928;2022-12-19T07:55:23;3.10;99.90
34698;DHT22;61391;50.922;6.928;2022-12-19T07:57:49;3.30;99.90
34698;DHT22;61391;50.922;6.928;2022-12-19T08:00:15;3.10;99.90
34698;DHT22;61391;50.922;6.928;2022-12-19T08:02:41;3.20;99.90
34698;DHT22;61391;50.922;6.928;2022-12-19T08:05:06;3.20;99.90
34698;DHT22;61391;50.922;6.928;2022-12-19T08:07:32;3.30;99.90
34698;DHT22;61391;50.922;6.928;2022-12-19T08:09:58;3.30;99.90
34698;DHT22;61391;50.922;6.928;2022-12-19T08:12:23;3.30;99.90
34698;DHT22;61391;50.922;6.928;2022-12-19T08:15:21;3.30;99.90
34698;DHT22;61391;50.922;6.928;2022-12-19T08:17:47;3.40;99.90
34698;DHT22;61391;50.922;6.928;2022-12-19T08:20:13;3.40;99.90
34698;DHT22;61391;50.922;6.928;2022-12-19T08:22:38;3.40;99.90
34698;DHT22;61391;50.922;6.928;2022-12-19T08:25:04;3.50;99.90
34698;DHT22;61391;50.922;6.928;2022-12-19T08:27:31;3.50;99.90
34698;DHT22;61391;50.922;6.928;2022-12-19T08:29:57;3.40;99.90
34698;DHT22;61391;50.922;6.928;2022-12-19T08:32:22;3.50;99.90
34698;DHT22;61391;50.922;6.928;2022-12-19T08:38:10;3.60;99.90
34698;DHT22;61391;50.922;6.928;2022-12-19T08:40:36;3.60;99.90
34698;DHT22;61391;50.922;6.928;2022-12-19T08:43:01;3.60;99.90
34698;DHT22;61391;50.922;6.928;2022-12-19T08:45:27;3.90;99.90
34698;DHT22;61391;50.922;6.928;2022-12-19T08:47:53;3.80;99.90
34698;DHT22;61391;50.922;6.928;2022-12-19T08:50:19;3.70;99.90
34698;DHT22;61391;50.922;6.928;2022-12-19T08:52:44;3.70;99.90
34698;DHT22;61391;50.922;6.928;2022-12-19T08:55:10;3.70;99.90
34698;DHT22;61391;50.922;6.928;2022-12-19T08:57:36;3.70;99.90
34698;DHT22;61391;50.922;6.928;2022-12-19T09:00:03;3.70;99.90
34698;DHT22;61391;50.922;6.928;2022-12-19T09:02:29;3.70;99.90
34698;DHT22;61391;50.922;6.928;2022-12-19T09:04:55;3.60;99.90
34698;DHT22;61391;50.922;6.928;2022-12-19T09:07:20;3.60;99.90
34698;DHT22;61391;50.922;6.928;2022-12-19T09:13:08;3.80;99.90
34698;DHT22;61391;50.922;6.928;2022-12-19T09:15:33;3.70;99.90
34698;DHT22;61391;50.922;6.928;2022-12-19T09:17:59;3.80;99.90
34698;DHT22;61391;50.922;6.928;2022-12-19T09:20:24;3.80;99.90
34698;DHT22;61391;50.922;6.928;2022-12-19T09:26:13;3.70;99.90
34698;DHT22;61391;50.922;6.928;2022-12-19T09:32:00;3.90;99.90
34698;DHT22;61391;50.922;6.928;2022-12-19T09:37:48;3.70;99.90
34698;DHT22;61391;50.922;6.928;2022-12-19T09:40:15;3.80;99.90
34698;DHT22;61391;50.922;6.928;2022-12-19T09:43:00;3.90;99.90
34698;DHT22;61391;50.922;6.928;2022-12-19T09:48:01;3.90;99.90
34698;DHT22;61391;50.922;6.928;2022-12-19T09:54:00;3.90;99.90
34698;DHT22;61391;50.922;6.928;2022-12-19T09:59:56;4.00;99.90
34698;DHT22;61391;50.922;6.928;2022-12-19T10:07:49;4.00;99.90
34698;DHT22;61391;50.922;6.928;2022-12-19T10:10:17;4.00;99.90
34698;DHT22;61391;50.922;6.928;2022-12-19T10:31:02;3.90;99.90
34698;DHT22;61391;50.922;6.928;2022-12-19T10:33:43;3.90;99.90
34698;DHT22;61391;50.922;6.928;2022-12-19T10:36:10;3.90;99.90
34698;DHT22;61391;50.922;6.928;2022-12-19T10:38:57;4.00;99.90
34698;DHT22;61391;50.922;6.928;2022-12-19T10:41:27;4.00;99.90
34698;DHT22;61391;50.922;6.928;2022-12-19T10:47:16;4.00;99.90
34698;DHT22;61391;50.922;6.928;2022-12-19T10:49:42;4.10;99.90
34698;DHT22;61391;50.922;6.928;2022-12-19T10:55:43;4.10;99.90
34698;DHT22;61391;50.922;6.928;2022-12-19T10:58:33;4.10;99.90
34698;DHT22;61391;50.922;6.928;2022-12-19T11:09:36;4.50;99.90
34698;DHT22;61391;50.922;6.928;2022-12-19T11:14:43;4.50;99.90
34698;DHT22;61391;50.922;6.928;2022-12-19T11:17:26;4.50;99.90
34698;DHT22;61391;50.922;6.928;2022-12-19T11:20:18;4.50;99.90
34698;DHT22;61391;50.922;6.928;2022-12-19T11:22:56;4.50;99.90
34698;DHT22;61391;50.922;6.928;2022-12-19T11:25:39;4.60;99.90
34698;DHT22;61391;50.922;6.928;2022-12-19T11:30:42;4.70;99.90
34698;DHT22;61391;50.922;6.928;2022-12-19T11:33:16;4.60;99.90
34698;DHT22;61391;50.922;6.928;2022-12-19T11:35:54;4.70;99.90
34698;DHT22;61391;50.922;6.928;2022-12-19T11:40:59;4.70;99.90
34698;DHT22;61391;50.922;6.928;2022-12-19T11:44:04;4.60;99.90
34698;DHT22;61391;50.922;6.928;2022-12-19T11:50:17;4.90;99.90
34698;DHT22;61391;50.922;6.928;2022-12-19T11:52:51;4.80;99.90
34698;DHT22;61391;50.922;6.928;2022-12-19T11:58:04;4.70;99.90
34698;DHT22;61391;50.922;6.928;2022-12-19T12:06:55;4.70;99.90
34698;DHT22;61391;50.922;6.928;2022-12-19T12:12:10;4.80;99.90
34698;DHT22;61391;50.922;6.928;2022-12-19T12:17:40;5.00;99.90
34698;DHT22;61391;50.922;6.928;2022-12-19T12:23:24;5.10;99.90
34698;DHT22;61391;50.922;6.928;2022-12-19T12:40:21;5.10;99.90
34698;DHT22;61391;50.922;6.928;2022-12-19T12:46:28;5.40;99.90
34698;DHT22;61391;50.922;6.928;2022-12-19T12:51:25;5.40;99.90
34698;DHT22;61391;50.922;6.928;2022-12-19T12:54:00;5.30;99.90
34698;DHT22;61391;50.922;6.928;2022-12-19T12:56:29;5.30;99.90
34698;DHT22;61391;50.922;6.928;2022-12-19T13:07:20;5.70;99.90
34698;DHT22;61391;50.922;6.928;2022-12-19T13:10:14;5.70;99.90
34698;DHT22;61391;50.922;6.928;2022-12-19T13:30:31;5.80;99.90
34698;DHT22;61391;50.922;6.928;2022-12-19T13:38:21;5.60;99.90
34698;DHT22;61391;50.922;6.928;2022-12-19T13:41:03;5.60;99.90
34698;DHT22;61391;50.922;6.928;2022-12-19T13:43:56;5.60;99.90
34698;DHT22;61391;50.922;6.928;2022-12-19T13:49:44;5.80;99.90
34698;DHT22;61391;50.922;6.928;2022-12-19T13:55:32;5.60;99.90
34698;DHT22;61391;50.922;6.928;2022-12-19T13:57:57;5.40;99.90
34698;DHT22;61391;50.922;6.928;2022-12-19T14:00:38;5.40;99.90
34698;DHT22;61391;50.922;6.928;2022-12-19T14:06:24;5.30;99.90
34698;DHT22;61391;50.922;6.928;2022-12-19T14:08:52;5.40;99.90
34698;DHT22;61391;50.922;6.928;2022-12-19T14:11:20;5.40;99.90
34698;DHT22;61391;50.922;6.928;2022-12-19T14:13:58;5.40;99.90
34698;DHT22;61391;50.922;6.928;2022-12-19T14:16:43;5.50;99.90
34698;DHT22;61391;50.922;6.928;2022-12-19T14:19:24;5.50;99.90
34698;DHT22;61391;50.922;6.928;2022-12-19T14:21:51;5.40;99.90
34698;DHT22;61391;50.922;6.928;2022-12-19T14:24:22;5.40;99.90
34698;DHT22;61391;50.922;6.928;2022-12-19T14:27:01;5.50;99.90
34698;DHT22;61391;50.922;6.928;2022-12-19T14:29:42;5.60;99.90
34698;DHT22;61391;50.922;6.928;2022-12-19T14:32:09;5.70;99.90
34698;DHT22;61391;50.922;6.928;2022-12-19T14:34:35;5.70;99.90
34698;DHT22;61391;50.922;6.928;2022-12-19T14:37:01;5.60;99.90
34698;DHT22;61391;50.922;6.928;2022-12-19T14:39:32;5.60;99.90
34698;DHT22;61391;50.922;6.928;2022-12-19T14:42:14;5.60;99.90
34698;DHT22;61391;50.922;6.928;2022-12-19T14:44:59;5.60;99.90
34698;DHT22;61391;50.922;6.928;2022-12-19T14:47:38;5.70;99.90
34698;DHT22;61391;50.922;6.928;2022-12-19T14:50:27;5.60;99.90
34698;DHT22;61391;50.922;6.928;2022-12-19T14:53:07;5.80;99.90
34698;DHT22;61391;50.922;6.928;2022-12-19T14:55:37;5.80;99.90
34698;DHT22;61391;50.922;6.928;2022-12-19T14:58:13;5.80;99.90
34698;DHT22;61391;50.922;6.928;2022-12-19T15:00:46;5.80;99.90
34698;DHT22;61391;50.922;6.928;2022-12-19T15:03:21;5.80;99.90
34698;DHT22;61391;50.922;6.928;2022-12-19T15:05:47;6.10;99.90
34698;DHT22;61391;50.922;6.928;2022-12-19T15:08:31;6.10;99.90
34698;DHT22;61391;50.922;6.928;2022-12-19T15:10:59;6.20;99.90
34698;DHT22;61391;50.922;6.928;2022-12-19T15:14:13;6.10;99.90
34698;DHT22;61391;50.922;6.928;2022-12-19T15:17:00;6.10;99.90
34698;DHT22;61391;50.922;6.928;2022-12-19T15:19:26;6.10;99.90
34698;DHT22;61391;50.922;6.928;2022-12-19T15:25:15;6.30;99.90
34698;DHT22;61391;50.922;6.928;2022-12-19T15:31:17;6.40;99.90
34698;DHT22;61391;50.922;6.928;2022-12-19T15:33:46;6.50;99.90
34698;DHT22;61391;50.922;6.928;2022-12-19T15:39:33;6.40;99.90
34698;DHT22;61391;50.922;6.928;2022-12-19T15:41:59;6.30;99.90
34698;DHT22;61391;50.922;6.928;2022-12-19T15:44:33;6.40;99.90
34698;DHT22;61391;50.922;6.928;2022-12-19T15:47:03;6.40;99.90
34698;DHT22;61391;50.922;6.928;2022-12-19T15:49:28;6.50;99.90
34698;DHT22;61391;50.922;6.928;2022-12-19T15:51:55;6.60;99.90
34698;DHT22;61391;50.922;6.928;2022-12-19T15:54:21;6.60;99.90
34698;DHT22;61391;50.922;6.928;2022-12-19T15:56:53;6.60;99.90
34698;DHT22;61391;50.922;6.928;2022-12-19T15:59:34;6.60;99.90
34698;DHT22;61391;50.922;6.928;2022-12-19T16:05:23;6.50;99.90
34698;DHT22;61391;50.922;6.928;2022-12-19T16:07:50;6.60;99.90
34698;DHT22;61391;50.922;6.928;2022-12-19T16:10:16;6.60;99.90
34698;DHT22;61391;50.922;6.928;2022-12-19T16:16:04;6.50;99.90
34698;DHT22;61391;50.922;6.928;2022-12-19T16:18:30;6.50;99.90
34698;DHT22;61391;50.922;6.928;2022-12-19T16:20:55;6.50;99.90
34698;DHT22;61391;50.922;6.928;2022-12-19T16:23:21;6.60;99.90
34698;DHT22;61391;50.922;6.928;2022-12-19T16:25:50;6.60;99.90
34698;DHT22;61391;50.922;6.928;2022-12-19T16:31:37;6.60;99.90
34698;DHT22;61391;50.922;6.928;2022-12-19T16:34:12;6.50;99.90
34698;DHT22;61391;50.922;6.928;2022-12-19T16:36:38;6.60;99.90
34698;DHT22;61391;50.922;6.928;2022-12-19T16:39:04;6.60;99.90
34698;DHT22;61391;50.922;6.928;2022-12-19T16:41:29;6.70;99.90
34698;DHT22;61391;50.922;6.928;2022-12-19T16:43:55;6.70;99.90
34698;DHT22;61391;50.922;6.928;2022-12-19T16:49:43;6.60;99.90
34698;DHT22;61391;50.922;6.928;2022-12-19T16:52:09;6.70;99.90
34698;DHT22;61391;50.922;6.928;2022-12-19T16:54:35;6.70;99.90
34698;DHT22;61391;50.922;6.928;2022-12-19T16:57:01;6.70;99.90
34698;DHT22;61391;50.922;6.928;2022-12-19T16:59:34;6.60;99.90
34698;DHT22;61391;50.922;6.928;2022-12-19T17:02:01;6.60;99.90
34698;DHT22;61391;50.922;6.928;2022-12-19T17:07:56;6.60;99.90
34698;DHT22;61391;50.922;6.928;2022-12-19T17:10:26;6.60;99.90
34698;DHT22;61391;50.922;6.928;2022-12-19T17:19:37;6.60;99.90
34698;DHT22;61391;50.922;6.928;2022-12-19T17:22:12;6.70;99.90
34698;DHT22;61391;50.922;6.928;2022-12-19T17:24:38;6.70;99.90
34698;DHT22;61391;50.922;6.928;2022-12-19T17:27:04;6.70;99.90
34698;DHT22;61391;50.922;6.928;2022-12-19T17:29:30;6.90;99.90
34698;DHT22;61391;50.922;6.928;2022-12-19T17:31:56;6.90;99.90
34698;DHT22;61391;50.922;6.928;2022-12-19T17:34:27;6.90;99.90
34698;DHT22;61391;50.922;6.928;2022-12-19T17:36:53;7.00;99.90
34698;DHT22;61391;50.922;6.928;2022-12-19T17:39:20;7.10;99.90
34698;DHT22;61391;50.922;6.928;2022-12-19T17:41:47;7.10;99.90
34698;DHT22;61391;50.922;6.928;2022-12-19T17:44:13;7.20;99.90
34698;DHT22;61391;50.922;6.928;2022-12-19T17:46:38;7.20;99.90
34698;DHT22;61391;50.922;6.928;2022-12-19T17:49:04;7.10;99.90
34698;DHT22;61391;50.922;6.928;2022-12-19T17:51:30;7.20;99.90
34698;DHT22;61391;50.922;6.928;2022-12-19T17:53:55;7.20;99.90
34698;DHT22;61391;50.922;6.928;2022-12-19T17:56:21;7.20;99.90
34698;DHT22;61391;50.922;6.928;2022-12-19T18:02:19;7.10;99.90
34698;DHT22;61391;50.922;6.928;2022-12-19T18:04:45;7.20;99.90
34698;DHT22;61391;50.922;6.928;2022-12-19T18:07:14;7.30;99.90
34698;DHT22;61391;50.922;6.928;2022-12-19T18:09:40;7.20;99.90
34698;DHT22;61391;50.922;6.928;2022-12-19T18:12:24;7.20;99.90
34698;DHT22;61391;50.922;6.928;2022-12-19T18:14:50;7.20;99.90
34698;DHT22;61391;50.922;6.928;2022-12-19T18:17:22;7.20;99.90
34698;DHT22;61391;50.922;6.928;2022-12-19T18:19:48;7.30;99.90
34698;DHT22;61391;50.922;6.928;2022-12-19T18:22:14;7.30;99.90
34698;DHT22;61391;50.922;6.928;2022-12-19T18:24:40;7.40;99.90
34698;DHT22;61391;50.922;6.928;2022-12-19T18:27:06;7.50;99.90
34698;DHT22;61391;50.922;6.928;2022-12-19T18:32:59;7.30;99.90
34698;DHT22;61391;50.922;6.928;2022-12-19T18:35:35;7.30;99.90
34698;DHT22;61391;50.922;6.928;2022-12-19T18:38:07;7.30;99.90
34698;DHT22;61391;50.922;6.928;2022-12-19T18:40:32;7.30;99.90
34698;DHT22;61391;50.922;6.928;2022-12-19T18:42:59;7.30;99.90
34698;DHT22;61391;50.922;6.928;2022-12-19T18:45:30;7.30;99.90
34698;DHT22;61391;50.922;6.928;2022-12-19T18:47:59;7.30;99.90
34698;DHT22;61391;50.922;6.928;2022-12-19T18:50:26;7.40;99.90
34698;DHT22;61391;50.922;6.928;2022-12-19T18:52:53;7.40;99.90
34698;DHT22;61391;50.922;6.928;2022-12-19T18:55:21;7.50;99.90
34698;DHT22;61391;50.922;6.928;2022-12-19T18:57:48;7.50;99.90
34698;DHT22;61391;50.922;6.928;2022-12-19T19:03:38;7.50;99.90
34698;DHT22;61391;50.922;6.928;2022-12-19T19:06:12;7.60;99.90
34698;DHT22;61391;50.922;6.928;2022-12-19T19:08:41;7.70;99.90
34698;DHT22;61391;50.922;6.928;2022-12-19T19:11:07;7.70;99.90
34698;DHT22;61391;50.922;6.928;2022-12-19T19:14:10;7.80;99.90
34698;DHT22;61391;50.922;6.928;2022-12-19T19:16:36;7.80;99.90
34698;DHT22;61391;50.922;6.928;2022-12-19T19:19:04;7.90;99.90
34698;DHT22;61391;50.922;6.928;2022-12-19T19:21:32;7.90;99.90
34698;DHT22;61391;50.922;6.928;2022-12-19T19:26:32;8.10;99.90
34698;DHT22;61391;50.922;6.928;2022-12-19T19:28:58;8.20;99.90
34698;DHT22;61391;50.922;6.928;2022-12-19T19:31:26;8.40;99.90
34698;DHT22;61391;50.922;6.928;2022-12-19T19:33:59;8.40;99.90
34698;DHT22;61391;50.922;6.928;2022-12-19T19:36:27;8.40;99.90
34698;DHT22;61391;50.922;6.928;2022-12-19T19:38:55;8.40;99.90
34698;DHT22;61391;50.922;6.928;2022-12-19T19:44:44;8.70;99.90
34698;DHT22;61391;50.922;6.928;2022-12-19T19:47:11;8.70;99.90
34698;DHT22;61391;50.922;6.928;2022-12-19T19:49:37;8.70;99.90
34698;DHT22;61391;50.922;6.928;2022-12-19T19:52:02;8.70;99.90
34698;DHT22;61391;50.922;6.928;2022-12-19T19:54:29;8.80;99.90
34698;DHT22;61391;50.922;6.928;2022-12-19T19:56:54;8.70;99.90
34698;DHT22;61391;50.922;6.928;2022-12-19T19:59:20;8.50;99.90
34698;DHT22;61391;50.922;6.928;2022-12-19T20:01:46;8.50;99.90
34698;DHT22;61391;50.922;6.928;2022-12-19T20:04:12;8.60;99.90
34698;DHT22;61391;50.922;6.928;2022-12-19T20:06:37;8.60;99.90
34698;DHT22;61391;50.922;6.928;2022-12-19T20:09:03;8.60;99.90
34698;DHT22;61391;50.922;6.928;2022-12-19T20:11:29;8.70;99.90
34698;DHT22;61391;50.922;6.928;2022-12-19T20:13:55;8.90;99.90
34698;DHT22;61391;50.922;6.928;2022-12-19T20:16:21;8.90;99.90
34698;DHT22;61391;50.922;6.928;2022-12-19T20:18:51;8.80;99.90
34698;DHT22;61391;50.922;6.928;2022-12-19T20:21:17;9.10;99.90
34698;DHT22;61391;50.922;6.928;2022-12-19T20:23:44;9.20;99.90
34698;DHT22;61391;50.922;6.928;2022-12-19T20:26:11;9.30;99.90
34698;DHT22;61391;50.922;6.928;2022-12-19T20:28:37;9.40;99.90